createdAt,value
2023-03-26T21:37:35.339Z,98751.48
2023-03-26T21:40:14.830Z,98747.02
2023-03-26T21:42:47.193Z,98745.83
2023-03-26T21:45:19.762Z,98749.92
2023-03-26T21:47:51.571Z,98750.95
2023-03-26T21:50:24.766Z,98742.89
2023-03-26T21:52:56.718Z,98736.73
2023-03-26T21:55:28.718Z,98732.95
2023-03-26T21:58:23.513Z,98730.89
2023-03-26T22:01:10.033Z,98739.46
2023-03-26T22:03:57.018Z,98744.24
2023-03-26T22:06:33.290Z,98740.14
2023-03-26T22:09:04.684Z,98734.31
2023-03-26T22:11:35.337Z,98733.45
2023-03-26T22:14:06.273Z,98737.73
2023-03-26T22:16:37.216Z,98744.75
2023-03-26T22:19:08.658Z,98743.55
2023-03-26T22:21:39.193Z,98741.16
2023-03-26T22:24:09.962Z,98742.88
2023-03-26T22:26:40.764Z,98743.22
2023-03-26T22:29:12.210Z,98742.54
2023-03-26T22:31:43.951Z,98744.78
2023-03-26T22:34:14.553Z,98744.12
2023-03-26T22:36:45.126Z,98749.25
2023-03-26T22:39:15.595Z,98743.77
2023-03-26T22:41:46.060Z,98738.64
2023-03-26T22:44:20.117Z,98741.73
2023-03-26T22:46:52.742Z,98741.39
2023-03-26T22:49:26.154Z,98750.48
2023-03-26T22:51:56.844Z,98751.17
2023-03-26T22:54:27.371Z,98747.58
2023-03-26T22:56:57.850Z,98747.06
2023-03-26T22:59:28.897Z,98749.13
2023-03-26T23:01:59.616Z,98748.44
2023-03-26T23:04:32.398Z,98746.39
2023-03-26T23:07:03.211Z,98746.22
2023-03-26T23:09:33.696Z,98748.27
2023-03-26T23:12:04.296Z,98745.35
2023-03-26T23:14:34.782Z,98744.33
2023-03-26T23:17:05.338Z,98739.51
2023-03-26T23:19:37.051Z,98734.53
2023-03-26T23:22:08.780Z,98733.16
2023-03-26T23:24:39.795Z,98733.33
2023-03-26T23:27:10.811Z,98740.35
2023-03-26T23:29:42.250Z,98746.86
2023-03-26T23:32:24.694Z,98748.05
2023-03-26T23:34:56.462Z,98746.00
2023-03-26T23:37:29.488Z,98749.08
2023-03-26T23:40:00.539Z,98747.55
2023-03-26T23:42:31.014Z,98753.02
2023-03-26T23:45:01.974Z,98755.77
2023-03-26T23:47:34.876Z,98756.97
2023-03-26T23:50:07.960Z,98765.03
2023-03-26T23:52:38.677Z,98766.55
2023-03-26T23:55:10.212Z,98766.54
2023-03-26T23:57:40.676Z,98765.17
